createdAt,value
2018-02-18T00:02:27.397Z,23.80
2018-02-18T00:04:54.871Z,21.37
2018-02-18T00:07:22.407Z,23.15
2018-02-18T00:09:49.843Z,23.75
2018-02-18T00:12:18.066Z,22.37
2018-02-18T00:17:45.589Z,21.27
2018-02-18T00:20:13.880Z,22.37
2018-02-18T00:22:42.116Z,21.95
2018-02-18T00:25:09.589Z,20.90
2018-02-18T00:27:37.095Z,21.27
2018-02-18T00:30:04.561Z,22.50
2018-02-18T00:32:32.043Z,22.70
2018-02-18T00:34:59.541Z,22.67
2018-02-18T00:37:27.765Z,21.55
2018-02-18T00:39:55.244Z,22.52
2018-02-18T00:42:22.748Z,21.77
2018-02-18T00:44:50.223Z,22.85
2018-02-18T00:47:17.696Z,22.23
2018-02-18T00:49:45.195Z,23.10
2018-02-18T00:52:13.461Z,22.70
2018-02-18T00:54:40.954Z,23.73
2018-02-18T00:57:08.409Z,22.73
2018-02-18T00:59:35.880Z,22.23
2018-02-18T01:02:03.355Z,23.10
2018-02-18T01:04:30.826Z,22.60
2018-02-18T01:06:58.296Z,24.40
2018-02-18T01:09:26.566Z,20.40
2018-02-18T01:11:54.035Z,22.08
2018-02-18T01:14:22.276Z,20.75
2018-02-18T01:16:49.768Z,21.65
2018-02-18T01:19:18.896Z,21.23
2018-02-18T01:21:46.357Z,20.95
2018-02-18T01:24:13.878Z,22.10
2018-02-18T01:26:42.105Z,20.55
2018-02-18T01:29:09.571Z,20.70
2018-02-18T01:31:37.050Z,20.65
2018-02-18T01:34:04.554Z,19.35
2018-02-18T01:36:32.051Z,21.27
2018-02-18T01:38:59.526Z,21.52
2018-02-18T01:41:26.999Z,19.85
2018-02-18T01:43:55.258Z,21.30
2018-02-18T01:46:22.814Z,19.98
2018-02-18T01:48:50.286Z,21.40
2018-02-18T01:51:18.547Z,19.75
2018-02-18T01:53:46.011Z,21.65
2018-02-18T01:56:14.274Z,21.50
2018-02-18T01:58:41.746Z,21.67
2018-02-18T02:01:09.990Z,22.25
2018-02-18T02:03:37.486Z,21.23
2018-02-18T02:06:05.714Z,22.87
2018-02-18T02:08:33.187Z,20.80
2018-02-18T02:11:02.235Z,21.33
2018-02-18T02:13:29.795Z,20.50
2018-02-18T02:15:57.258Z,21.85
2018-02-18T02:18:24.758Z,20.55
2018-02-18T02:20:52.234Z,21.77
2018-02-18T02:23:20.453Z,21.52
2018-02-18T02:25:47.939Z,20.45
2018-02-18T02:28:15.435Z,20.73
2018-02-18T02:30:43.700Z,21.50
2018-02-18T02:33:11.951Z,21.25
2018-02-18T02:35:39.420Z,20.73
2018-02-18T02:38:07.651Z,22.17
2018-02-18T02:40:35.156Z,18.40
2018-02-18T02:43:03.399Z,20.10
2018-02-18T02:45:30.882Z,20.17
2018-02-18T02:47:58.437Z,20.80
2018-02-18T02:50:26.678Z,19.70
2018-02-18T02:52:54.147Z,20.10
2018-02-18T02:55:21.654Z,19.67
2018-02-18T02:57:49.126Z,19.83
2018-02-18T03:00:16.587Z,19.83
2018-02-18T03:02:44.081Z,18.75
2018-02-18T03:05:11.548Z,19.50
2018-02-18T03:07:39.070Z,20.02
2018-02-18T03:10:06.552Z,19.25
2018-02-18T03:12:34.030Z,19.15
2018-02-18T03:15:02.286Z,19.23
2018-02-18T03:17:29.780Z,16.98
2018-02-18T03:19:58.013Z,17.27
2018-02-18T03:22:25.686Z,17.87
2018-02-18T03:24:53.149Z,18.42
2018-02-18T03:27:21.406Z,17.95
2018-02-18T03:29:48.921Z,17.65
2018-02-18T03:32:16.398Z,18.65
2018-02-18T03:34:43.879Z,17.50
2018-02-18T03:37:11.343Z,18.45
2018-02-18T03:39:39.608Z,18.20
2018-02-18T03:42:07.075Z,16.92
2018-02-18T03:44:36.072Z,19.15
2018-02-18T03:47:03.529Z,17.90
2018-02-18T03:49:31.763Z,16.55
2018-02-18T03:51:59.247Z,17.50
2018-02-18T03:54:27.523Z,18.10
2018-02-18T03:56:54.998Z,15.95
2018-02-18T03:59:23.254Z,18.42
2018-02-18T04:01:50.715Z,17.48
2018-02-18T04:04:18.223Z,17.10
2018-02-18T04:06:45.703Z,17.30
2018-02-18T04:09:13.161Z,16.25
2018-02-18T04:11:40.695Z,17.33
2018-02-18T04:14:08.154Z,18.02
2018-02-18T04:16:35.634Z,16.48
2018-02-18T04:19:03.111Z,16.45
2018-02-18T04:21:30.574Z,17.20
2018-02-18T04:23:58.078Z,16.95
2018-02-18T04:26:25.555Z,16.05
2018-02-18T04:28:53.039Z,16.12
2018-02-18T04:31:20.525Z,17.52
2018-02-18T04:33:48.779Z,15.93
2018-02-18T04:36:16.276Z,14.52
2018-02-18T04:38:43.747Z,16.25
2018-02-18T04:41:11.209Z,17.55
2018-02-18T04:43:38.707Z,19.08
2018-02-18T04:46:06.946Z,16.73
2018-02-18T04:48:34.422Z,15.85
2018-02-18T04:51:01.904Z,16.87
2018-02-18T04:53:30.142Z,14.20
2018-02-18T04:55:57.631Z,16.33
2018-02-18T04:58:25.861Z,16.58
2018-02-18T05:00:53.321Z,14.75
2018-02-18T05:03:20.809Z,18.25
2018-02-18T05:05:48.268Z,16.95
2018-02-18T05:08:15.729Z,16.60
2018-02-18T05:10:43.983Z,17.52
2018-02-18T05:13:11.456Z,16.98
2018-02-18T05:15:39.063Z,17.40
2018-02-18T05:18:06.529Z,15.43
2018-02-18T05:20:33.986Z,15.63
2018-02-18T05:23:01.533Z,16.73
2018-02-18T05:25:28.998Z,16.25
2018-02-18T05:27:56.549Z,14.87
2018-02-18T05:30:24.031Z,17.23
2018-02-18T05:32:51.495Z,17.33
2018-02-18T05:35:18.983Z,17.20
2018-02-18T05:37:47.237Z,15.35
2018-02-18T05:40:14.751Z,16.87
2018-02-18T05:42:42.245Z,16.67
2018-02-18T05:45:09.822Z,15.70
2018-02-18T05:47:37.302Z,16.00
2018-02-18T05:50:05.561Z,16.48
2018-02-18T05:52:33.028Z,17.73
2018-02-18T05:55:01.278Z,14.80
2018-02-18T05:57:28.744Z,16.58
2018-02-18T05:59:56.215Z,16.73
2018-02-18T06:02:23.725Z,16.30
2018-02-18T06:04:51.178Z,18.62
2018-02-18T06:07:18.643Z,18.05
2018-02-18T06:09:46.149Z,16.48
2018-02-18T06:12:14.374Z,16.40
2018-02-18T06:14:41.856Z,16.67
2018-02-18T06:17:09.318Z,17.58
2018-02-18T06:19:37.557Z,19.48
2018-02-18T06:22:05.045Z,18.05
2018-02-18T06:24:32.521Z,19.73
2018-02-18T06:27:00.758Z,14.85
2018-02-18T06:29:28.222Z,16.55
2018-02-18T06:31:55.688Z,18.20
2018-02-18T06:34:23.190Z,16.50
2018-02-18T06:36:50.672Z,18.35
2018-02-18T06:39:18.999Z,17.87
2018-02-18T06:41:46.482Z,19.62
2018-02-18T06:44:13.952Z,16.48
2018-02-18T06:46:41.430Z,17.50
2018-02-18T06:49:08.902Z,19.05
2018-02-18T06:51:36.363Z,18.23
2018-02-18T06:54:03.869Z,17.33
2018-02-18T06:56:31.338Z,17.85
2018-02-18T06:58:58.811Z,17.42
2018-02-18T07:01:26.302Z,17.42
2018-02-18T07:03:54.535Z,18.55
2018-02-18T07:06:22.015Z,18.08
2018-02-18T07:08:49.480Z,18.92
2018-02-18T07:11:17.738Z,17.30
2018-02-18T07:13:45.202Z,15.18
2018-02-18T07:16:13.444Z,17.83
2018-02-18T07:18:40.927Z,16.50
2018-02-18T07:21:08.387Z,16.25
2018-02-18T07:23:35.963Z,14.98
2018-02-18T07:26:04.195Z,16.65
2018-02-18T07:28:31.675Z,14.95
2018-02-18T07:30:59.163Z,15.70
2018-02-18T07:33:27.387Z,15.90
2018-02-18T07:35:54.877Z,15.07
2018-02-18T07:38:22.527Z,16.23
2018-02-18T07:40:50.023Z,16.05
2018-02-18T07:43:17.545Z,14.70
2018-02-18T07:45:44.999Z,16.12
2018-02-18T07:48:12.476Z,15.00
2018-02-18T07:50:40.698Z,14.48
2018-02-18T07:53:10.681Z,15.02
2018-02-18T07:55:38.143Z,14.63
2018-02-18T07:58:05.621Z,18.15
2018-02-18T08:00:33.121Z,12.80
2018-02-18T08:03:00.595Z,13.80
2018-02-18T08:05:28.918Z,15.57
2018-02-18T08:07:56.395Z,16.10
2018-02-18T08:10:23.862Z,15.25
2018-02-18T08:12:51.381Z,13.95
2018-02-18T08:15:18.937Z,15.93
2018-02-18T08:17:46.430Z,16.20
2018-02-18T08:20:13.910Z,17.08
2018-02-18T08:22:42.220Z,17.30
2018-02-18T08:25:09.719Z,15.60
2018-02-18T08:27:37.238Z,16.17
2018-02-18T08:30:04.705Z,16.35
2018-02-18T08:32:32.190Z,15.45
2018-02-18T08:34:59.667Z,14.02
2018-02-18T08:37:27.899Z,16.40
2018-02-18T08:39:55.398Z,13.75
2018-02-18T08:42:23.635Z,15.13
2018-02-18T08:44:51.120Z,17.58
2018-02-18T08:47:19.383Z,16.55
2018-02-18T08:49:46.863Z,17.85
2018-02-18T08:52:15.104Z,16.27
2018-02-18T08:54:42.607Z,17.98
2018-02-18T08:57:10.079Z,16.55
2018-02-18T08:59:37.541Z,14.90
2018-02-18T09:02:05.023Z,18.20
2018-02-18T09:04:32.491Z,17.23
2018-02-18T09:06:59.979Z,16.37
2018-02-18T09:09:28.207Z,16.50
2018-02-18T09:11:55.711Z,16.97
2018-02-18T09:14:23.970Z,14.30
2018-02-18T09:16:51.439Z,16.97
2018-02-18T09:19:19.670Z,18.67
2018-02-18T09:21:47.212Z,17.20
2018-02-18T09:24:14.680Z,15.70
2018-02-18T09:26:42.226Z,17.03
2018-02-18T09:29:09.688Z,18.53
2018-02-18T09:31:37.171Z,18.60
2018-02-18T09:34:04.651Z,16.53
2018-02-18T09:36:32.118Z,18.33
2018-02-18T09:39:00.352Z,17.53
2018-02-18T09:41:27.843Z,16.23
2018-02-18T09:43:56.079Z,17.87
2018-02-18T09:46:23.574Z,16.07
2018-02-18T09:48:51.818Z,17.43
2018-02-18T09:51:19.279Z,17.67
2018-02-18T09:53:46.766Z,18.00
2018-02-18T09:56:15.003Z,19.80
2018-02-18T09:58:42.462Z,17.23
2018-02-18T10:01:09.939Z,17.20
2018-02-18T10:03:37.400Z,17.50
2018-02-18T10:06:04.908Z,18.57
2018-02-18T10:08:32.419Z,18.77
2018-02-18T10:10:59.834Z,18.27
2018-02-18T10:13:27.331Z,17.83
2018-02-18T10:15:55.802Z,17.93
2018-02-18T10:18:27.136Z,16.97
2018-02-18T10:20:54.661Z,17.23
2018-02-18T10:23:22.122Z,17.53
2018-02-18T10:25:49.617Z,17.93
2018-02-18T10:28:17.142Z,17.20
2018-02-18T10:30:44.610Z,17.03
2018-02-18T10:33:12.131Z,16.63
2018-02-18T10:35:39.586Z,18.57
2018-02-18T10:38:07.061Z,17.63
2018-02-18T10:40:34.539Z,17.20
2018-02-18T10:43:02.033Z,16.93
2018-02-18T10:45:29.531Z,19.43
2018-02-18T10:47:56.995Z,16.30
2018-02-18T10:50:24.474Z,17.80
2018-02-18T10:52:51.961Z,17.73
2018-02-18T10:55:20.210Z,19.33
2018-02-18T10:57:47.675Z,18.80
2018-02-18T11:00:16.675Z,17.77
2018-02-18T11:02:44.127Z,18.90
2018-02-18T11:05:11.599Z,18.67
2018-02-18T11:07:39.826Z,18.23
2018-02-18T11:10:07.284Z,19.67
2018-02-18T11:12:34.783Z,18.73
2018-02-18T11:15:02.260Z,17.97
2018-02-18T11:17:30.489Z,19.50
2018-02-18T11:19:57.992Z,18.97
2018-02-18T11:22:25.458Z,18.67
2018-02-18T11:24:52.939Z,19.03
2018-02-18T11:27:20.430Z,18.87
2018-02-18T11:29:47.895Z,18.90
2018-02-18T11:32:15.377Z,19.53
2018-02-18T11:34:43.635Z,19.63
2018-02-18T11:37:11.872Z,19.00
2018-02-18T11:39:39.330Z,18.73
2018-02-18T11:42:06.833Z,17.60
2018-02-18T11:44:34.287Z,19.20
2018-02-18T11:47:02.536Z,19.73
2018-02-18T11:49:29.999Z,18.87
2018-02-18T11:51:57.501Z,19.23
2018-02-18T11:54:25.005Z,18.13
2018-02-18T11:56:52.471Z,19.37
2018-02-18T11:59:19.933Z,18.63
2018-02-18T12:01:47.461Z,20.13
2018-02-18T12:04:15.685Z,17.27
2018-02-18T12:06:43.185Z,18.23
2018-02-18T12:09:10.641Z,18.80
2018-02-18T12:11:38.110Z,19.50
2018-02-18T12:14:05.603Z,18.90
2018-02-18T12:16:33.854Z,20.13
2018-02-18T12:19:01.301Z,19.60
2018-02-18T12:21:28.786Z,18.90
2018-02-18T12:23:57.020Z,17.97
2018-02-18T12:26:24.515Z,18.97
2018-02-18T12:28:52.759Z,18.53
2018-02-18T12:31:20.219Z,18.77
2018-02-18T12:33:47.694Z,20.30
2018-02-18T12:36:15.178Z,19.80
2018-02-18T12:38:42.650Z,19.37
2018-02-18T12:41:10.141Z,19.40
2018-02-18T12:43:37.612Z,20.27
2018-02-18T12:46:05.091Z,18.43
2018-02-18T12:48:33.332Z,19.10
2018-02-18T12:51:00.794Z,19.60
2018-02-18T12:53:28.286Z,19.90
2018-02-18T12:55:56.524Z,20.27
2018-02-18T12:58:24.023Z,19.70
2018-02-18T13:00:51.483Z,21.20
2018-02-18T13:03:18.938Z,19.17
2018-02-18T13:05:46.431Z,19.10
2018-02-18T13:08:13.907Z,20.13
2018-02-18T13:10:41.392Z,19.33
2018-02-18T13:13:09.635Z,20.50
2018-02-18T13:15:37.099Z,20.80
2018-02-18T13:18:04.587Z,21.47
2018-02-18T13:20:32.820Z,20.60
2018-02-18T13:23:00.286Z,21.03
2018-02-18T13:25:27.780Z,20.53
2018-02-18T13:27:56.014Z,20.90
2018-02-18T13:30:23.482Z,19.37
2018-02-18T13:32:50.975Z,20.13
2018-02-18T13:35:18.436Z,20.70
2018-02-18T13:37:45.924Z,19.70
2018-02-18T13:40:13.413Z,20.73
2018-02-18T13:42:40.915Z,20.40
2018-02-18T13:45:08.415Z,20.90
2018-02-18T13:47:35.870Z,20.40
2018-02-18T13:50:03.349Z,20.57
2018-02-18T13:52:31.604Z,20.17
2018-02-18T13:54:59.071Z,19.87
2018-02-18T13:57:28.114Z,20.40
2018-02-18T13:59:55.582Z,21.87
2018-02-18T14:02:23.059Z,20.97
2018-02-18T14:04:50.581Z,22.30
2018-02-18T14:07:18.023Z,22.30
2018-02-18T14:09:45.488Z,19.87
2018-02-18T14:12:12.984Z,20.67
2018-02-18T14:14:41.226Z,21.33
2018-02-18T14:17:08.699Z,18.87
2018-02-18T14:19:36.212Z,19.90
2018-02-18T14:22:04.448Z,20.73
2018-02-18T14:24:31.931Z,18.13
2018-02-18T14:26:59.414Z,19.60
2018-02-18T14:29:26.875Z,18.33
2018-02-18T14:31:54.498Z,20.60
2018-02-18T14:34:21.956Z,19.70
2018-02-18T14:36:49.432Z,18.67
2018-02-18T14:39:18.282Z,19.17
2018-02-18T14:41:57.528Z,18.33
2018-02-18T14:44:36.951Z,20.27
2018-02-18T14:47:16.246Z,19.33
2018-02-18T14:52:56.209Z,19.40
2018-02-18T14:55:35.720Z,19.10
2018-02-18T14:58:04.093Z,20.10
2018-02-18T15:00:32.338Z,19.73
2018-02-18T15:02:59.820Z,20.60
2018-02-18T15:05:27.323Z,19.13
2018-02-18T15:07:54.829Z,18.30
2018-02-18T15:10:22.310Z,19.23
2018-02-18T15:12:50.540Z,18.83
2018-02-18T15:15:18.054Z,18.33
2018-02-18T15:17:45.521Z,18.60
2018-02-18T15:20:12.993Z,19.03
2018-02-18T15:22:40.501Z,18.40
2018-02-18T15:25:07.975Z,18.60
2018-02-18T15:27:36.222Z,19.03
2018-02-18T15:30:03.716Z,18.67
2018-02-18T15:32:31.183Z,18.63
2018-02-18T15:34:58.659Z,17.10
2018-02-18T15:37:26.186Z,18.80
2018-02-18T15:39:54.384Z,19.30
2018-02-18T15:42:21.870Z,19.20
2018-02-18T15:44:49.344Z,18.13
2018-02-18T15:47:16.802Z,18.83
2018-02-18T15:49:45.067Z,19.37
2018-02-18T15:52:12.533Z,18.23
2018-02-18T15:54:40.822Z,21.00
2018-02-18T15:57:09.067Z,19.20
2018-02-18T15:59:36.540Z,18.87
2018-02-18T16:02:04.804Z,18.67
2018-02-18T16:04:32.292Z,17.80
2018-02-18T16:07:00.520Z,16.93
2018-02-18T16:09:28.015Z,16.17
2018-02-18T16:11:56.235Z,16.47
2018-02-18T16:14:23.717Z,17.30
2018-02-18T16:16:51.191Z,16.40
2018-02-18T16:19:18.723Z,15.17
2018-02-18T16:21:46.205Z,16.73
2018-02-18T16:24:14.435Z,14.93
2018-02-18T16:26:41.921Z,14.50
2018-02-18T16:29:09.412Z,15.47
2018-02-18T16:31:37.641Z,16.10
2018-02-18T16:34:05.119Z,15.40
2018-02-18T16:36:32.594Z,16.30
2018-02-18T16:39:00.842Z,15.03
2018-02-18T16:41:28.458Z,15.53
2018-02-18T16:43:55.920Z,15.47
2018-02-18T16:46:23.399Z,16.90
2018-02-18T16:48:50.887Z,15.27
2018-02-18T16:51:19.122Z,15.50
2018-02-18T16:53:46.609Z,14.70
2018-02-18T16:56:14.086Z,15.50
2018-02-18T16:58:42.319Z,16.07
2018-02-18T17:01:09.807Z,15.67
2018-02-18T17:03:38.039Z,17.07
2018-02-18T17:06:05.502Z,15.73
2018-02-18T17:08:32.975Z,16.40
2018-02-18T17:11:00.492Z,16.30
2018-02-18T17:13:27.978Z,15.47
2018-02-18T17:15:55.435Z,14.97
2018-02-18T17:18:23.705Z,16.43
2018-02-18T17:20:51.210Z,16.90
2018-02-18T17:23:19.447Z,17.03
2018-02-18T17:25:46.925Z,17.20
2018-02-18T17:28:14.424Z,16.97
2018-02-18T17:30:41.930Z,16.73
2018-02-18T17:33:09.417Z,16.50
2018-02-18T17:35:37.660Z,17.23
2018-02-18T17:38:05.133Z,16.90
2018-02-18T17:40:33.410Z,17.30
2018-02-18T17:43:01.642Z,15.07
2018-02-18T17:45:29.113Z,17.17
2018-02-18T17:47:56.598Z,18.07
2018-02-18T17:50:24.836Z,15.20
2018-02-18T17:52:52.294Z,16.60
2018-02-18T17:55:19.804Z,17.07
2018-02-18T17:57:48.056Z,16.53
2018-02-18T18:00:15.583Z,17.53
2018-02-18T18:02:43.059Z,17.30
2018-02-18T18:05:10.527Z,16.50
2018-02-18T18:07:38.793Z,16.90
2018-02-18T18:10:06.254Z,17.67
2018-02-18T18:12:33.737Z,17.33
2018-02-18T18:15:01.216Z,18.83
2018-02-18T18:17:28.682Z,17.70
2018-02-18T18:19:56.171Z,19.00
2018-02-18T18:22:23.663Z,19.43
2018-02-18T18:24:51.904Z,17.87
2018-02-18T18:27:19.381Z,19.80
2018-02-18T18:29:47.648Z,17.60
2018-02-18T18:32:15.166Z,17.40
2018-02-18T18:34:42.718Z,18.00
2018-02-18T18:37:10.192Z,17.93
2018-02-18T18:39:37.672Z,17.63
2018-02-18T18:42:05.152Z,18.20
2018-02-18T18:44:33.387Z,17.60
2018-02-18T18:47:00.879Z,17.53
2018-02-18T18:49:29.136Z,19.70
2018-02-18T18:51:56.631Z,18.25
2018-02-18T18:54:24.110Z,18.48
2018-02-18T18:56:51.601Z,20.60
2018-02-18T18:59:19.126Z,19.65
2018-02-18T19:01:46.620Z,19.93
2018-02-18T19:04:14.100Z,19.33
2018-02-18T19:06:41.592Z,20.20
2018-02-18T19:09:09.084Z,20.40
2018-02-18T19:11:36.593Z,22.57
2018-02-18T19:14:04.076Z,21.27
2018-02-18T19:16:31.569Z,22.10
2018-02-18T19:18:59.055Z,21.80
2018-02-18T19:21:27.327Z,20.62
2018-02-18T19:23:54.906Z,21.70
2018-02-18T19:26:22.407Z,23.57
2018-02-18T19:28:49.874Z,22.35
2018-02-18T19:31:18.131Z,20.63
2018-02-18T19:33:45.622Z,22.83
2018-02-18T19:36:13.118Z,22.42
2018-02-18T19:38:40.599Z,24.27
2018-02-18T19:41:08.079Z,24.57
2018-02-18T19:43:36.351Z,24.30
2018-02-18T19:46:04.607Z,24.05
2018-02-18T19:48:32.076Z,25.65
2018-02-18T19:50:59.609Z,25.65
2018-02-18T19:53:27.085Z,25.08
2018-02-18T19:55:54.557Z,26.20
2018-02-18T19:58:22.834Z,26.27
2018-02-18T20:00:51.086Z,25.33
2018-02-18T20:03:18.561Z,25.93
2018-02-18T20:05:46.838Z,25.67
2018-02-18T20:08:15.078Z,27.58
2018-02-18T20:10:42.592Z,25.98
2018-02-18T20:13:10.076Z,25.27
2018-02-18T20:15:37.585Z,27.92
2018-02-18T20:18:05.874Z,26.23
2018-02-18T20:20:34.122Z,27.35
2018-02-18T20:23:01.605Z,30.77
2018-02-18T20:25:29.098Z,28.67
2018-02-18T20:27:56.588Z,28.65
2018-02-18T20:30:24.091Z,28.67
2018-02-18T20:32:51.566Z,30.03
2018-02-18T20:35:19.035Z,28.77
2018-02-18T20:37:46.555Z,29.23
2018-02-18T20:40:14.082Z,29.75
2018-02-18T20:42:41.568Z,29.10
2018-02-18T20:45:09.874Z,29.40
2018-02-18T20:47:38.051Z,30.62
2018-02-18T20:50:05.578Z,32.70
2018-02-18T20:52:33.047Z,31.15
2018-02-18T20:55:00.545Z,29.98
2018-02-18T20:57:28.038Z,30.70
2018-02-18T20:59:56.288Z,31.02
2018-02-18T21:02:23.763Z,31.17
2018-02-18T21:04:52.011Z,30.30
2018-02-18T21:07:19.485Z,29.75
2018-02-18T21:09:47.007Z,29.98
2018-02-18T21:12:14.485Z,31.05
2018-02-18T21:14:43.475Z,29.83
2018-02-18T21:17:10.983Z,28.40
2018-02-18T21:19:38.556Z,30.83
2018-02-18T21:22:06.034Z,28.60
2018-02-18T21:24:33.535Z,30.73
2018-02-18T21:27:01.783Z,29.37
2018-02-18T21:29:29.268Z,28.15
2018-02-18T21:31:57.506Z,29.83
2018-02-18T21:34:24.975Z,28.80
2018-02-18T21:36:52.463Z,28.52
2018-02-18T21:39:19.931Z,29.83
2018-02-18T21:41:47.431Z,28.35
2018-02-18T21:44:14.962Z,28.00
2018-02-18T21:46:42.432Z,28.17
2018-02-18T21:49:09.910Z,30.98
2018-02-18T21:51:37.378Z,30.00
2018-02-18T21:54:04.884Z,29.90
2018-02-18T21:56:32.381Z,30.02
2018-02-18T21:58:59.855Z,31.05
2018-02-18T22:01:28.117Z,30.40
2018-02-18T22:03:55.604Z,29.98
2018-02-18T22:06:23.840Z,29.77
2018-02-18T22:08:51.328Z,30.20
2018-02-18T22:11:19.563Z,30.12
2018-02-18T22:13:47.064Z,30.75
2018-02-18T22:16:15.373Z,32.03
2018-02-18T22:18:42.833Z,30.62
2018-02-18T22:21:10.343Z,29.80
2018-02-18T22:23:37.820Z,30.77
2018-02-18T22:26:05.291Z,29.50
2018-02-18T22:28:32.791Z,31.35
2018-02-18T22:31:00.278Z,30.65
2018-02-18T22:33:28.517Z,29.60
2018-02-18T22:35:56.004Z,30.85
2018-02-18T22:38:24.294Z,31.00
2018-02-18T22:40:52.550Z,29.85
2018-02-18T22:43:20.781Z,32.45
2018-02-18T22:45:48.278Z,30.60
2018-02-18T22:48:15.755Z,32.22
2018-02-18T22:50:43.270Z,31.98
2018-02-18T22:53:10.735Z,34.40
2018-02-18T22:55:38.220Z,33.08
2018-02-18T22:58:06.451Z,33.42
2018-02-18T23:00:33.940Z,33.53
2018-02-18T23:03:01.415Z,33.00
2018-02-18T23:05:35.365Z,32.63
2018-02-18T23:08:02.837Z,32.50
2018-02-18T23:10:30.303Z,31.52
2018-02-18T23:12:57.810Z,35.65
2018-02-18T23:15:25.286Z,33.75
2018-02-18T23:17:52.837Z,33.70
2018-02-18T23:20:20.313Z,34.72
2018-02-18T23:22:47.782Z,32.85
2018-02-18T23:25:15.259Z,35.10
2018-02-18T23:27:42.747Z,33.60
2018-02-18T23:30:10.224Z,35.30
2018-02-18T23:32:37.690Z,31.27
2018-02-18T23:35:05.174Z,33.35
2018-02-18T23:37:32.653Z,32.75
2018-02-18T23:40:00.146Z,31.55
2018-02-18T23:42:27.672Z,30.50
2018-02-18T23:44:55.906Z,30.85
2018-02-18T23:47:23.414Z,30.70
2018-02-18T23:49:51.713Z,32.40
2018-02-18T23:52:19.171Z,31.08
2018-02-18T23:54:46.655Z,31.55
2018-02-18T23:57:14.123Z,31.60
2018-02-18T23:59:41.619Z,30.40
